createdAt,value
2023-05-14T00:02:56.776Z,0
2023-05-14T00:06:21.881Z,0
2023-05-14T00:09:47.088Z,0
2023-05-14T00:13:12.266Z,0
2023-05-14T00:16:37.642Z,0
2023-05-14T00:20:02.689Z,0
2023-05-14T00:23:27.837Z,0
2023-05-14T00:26:53.012Z,0
2023-05-14T00:30:18.177Z,0
2023-05-14T00:33:43.366Z,0
2023-05-14T00:37:08.573Z,0
2023-05-14T00:40:33.709Z,0
2023-05-14T00:43:58.910Z,0
2023-05-14T00:47:24.106Z,0
2023-05-14T00:50:49.251Z,0
2023-05-14T00:54:14.454Z,0
2023-05-14T00:57:39.615Z,0
2023-05-14T01:01:04.807Z,0
2023-05-14T01:04:29.951Z,0
2023-05-14T01:07:55.156Z,0
2023-05-14T01:11:20.370Z,0
2023-05-14T01:14:45.527Z,0
2023-05-14T01:18:10.715Z,0
2023-05-14T01:21:35.883Z,0
2023-05-14T01:25:01.064Z,0
2023-05-14T01:29:37.938Z,0
2023-05-14T01:33:03.177Z,0
2023-05-14T01:36:28.370Z,0
2023-05-14T01:39:53.622Z,0
2023-05-14T01:43:18.924Z,0
2023-05-14T01:46:44.095Z,0
2023-05-14T01:50:09.313Z,0
2023-05-14T01:53:34.547Z,0
2023-05-14T01:56:59.812Z,0
2023-05-14T02:00:25.422Z,0
2023-05-14T02:03:50.323Z,0
2023-05-14T02:07:15.470Z,0
2023-05-14T02:10:40.681Z,0
2023-05-14T02:14:05.898Z,0
2023-05-14T02:17:31.211Z,0
2023-05-14T02:20:56.342Z,0
2023-05-14T02:24:21.513Z,0
2023-05-14T02:27:46.733Z,0
2023-05-14T02:31:11.984Z,0
2023-05-14T02:34:37.167Z,0
2023-05-14T02:38:02.488Z,0
2023-05-14T02:41:27.626Z,0
2023-05-14T02:44:52.841Z,0
2023-05-14T02:48:18.033Z,0
2023-05-14T02:51:43.249Z,0
2023-05-14T02:55:08.516Z,0
2023-05-14T02:58:33.743Z,0
2023-05-14T03:01:58.981Z,0
2023-05-14T03:05:24.220Z,0
2023-05-14T03:08:49.473Z,0
2023-05-14T03:12:14.711Z,0
2023-05-14T03:15:39.897Z,0
2023-05-14T03:19:05.179Z,0
2023-05-14T03:22:30.364Z,0
2023-05-14T03:25:55.576Z,0
2023-05-14T03:29:20.845Z,0
2023-05-14T03:32:46.014Z,0
2023-05-14T03:36:11.219Z,0
2023-05-14T03:39:36.418Z,0
2023-05-14T03:43:01.630Z,0
2023-05-14T03:46:26.887Z,0
2023-05-14T03:49:52.084Z,0
2023-05-14T03:53:17.297Z,0
2023-05-14T03:56:42.551Z,0
2023-05-14T04:00:07.776Z,0
2023-05-14T04:03:33.215Z,0
2023-05-14T04:06:58.204Z,0
2023-05-14T04:10:23.680Z,0
2023-05-14T04:13:48.691Z,0
2023-05-14T04:17:13.941Z,0
2023-05-14T04:20:39.199Z,0
2023-05-14T04:24:04.398Z,0
2023-05-14T04:27:29.603Z,0
2023-05-14T04:30:55.065Z,0
2023-05-14T04:34:20.308Z,0
2023-05-14T04:37:45.590Z,0
2023-05-14T04:41:10.777Z,0
2023-05-14T04:44:36.022Z,0
2023-05-14T04:48:01.317Z,0
2023-05-14T04:51:26.455Z,6
2023-05-14T04:54:51.740Z,6
2023-05-14T04:58:16.926Z,6
2023-05-14T05:01:42.234Z,11
2023-05-14T05:05:07.390Z,11
2023-05-14T05:08:32.607Z,11
2023-05-14T05:11:57.859Z,11
2023-05-14T05:15:24.692Z,11
2023-05-14T05:18:48.286Z,17
2023-05-14T05:22:13.489Z,17
2023-05-14T05:25:38.719Z,17
2023-05-14T05:29:04.013Z,17
2023-05-14T05:32:29.282Z,11
2023-05-14T05:35:54.497Z,11
2023-05-14T05:39:19.726Z,11
2023-05-14T05:42:45.024Z,11
2023-05-14T05:46:10.399Z,11
2023-05-14T05:49:35.554Z,11
2023-05-14T05:53:00.826Z,11
2023-05-14T05:56:26.076Z,17
2023-05-14T05:59:51.333Z,23
2023-05-14T06:03:16.651Z,23
2023-05-14T06:06:41.820Z,23
2023-05-14T06:10:07.112Z,17
2023-05-14T06:13:32.371Z,23
2023-05-14T06:16:57.636Z,23
2023-05-14T06:20:22.977Z,17
2023-05-14T06:23:48.088Z,23
2023-05-14T06:27:13.309Z,17
2023-05-14T06:30:38.564Z,17
2023-05-14T06:34:03.821Z,17
2023-05-14T06:37:29.094Z,23
2023-05-14T06:40:54.330Z,23
2023-05-14T06:44:19.561Z,23
2023-05-14T06:47:44.835Z,28
2023-05-14T06:51:10.076Z,39
2023-05-14T06:54:35.335Z,39
2023-05-14T06:58:00.581Z,34
2023-05-14T07:01:25.837Z,28
2023-05-14T07:04:51.259Z,23
2023-05-14T07:08:16.503Z,23
2023-05-14T07:11:41.740Z,23
2023-05-14T07:15:06.980Z,23
2023-05-14T07:18:32.226Z,17
2023-05-14T07:21:57.445Z,28
2023-05-14T07:25:22.674Z,23
2023-05-14T07:28:47.942Z,23
2023-05-14T07:32:15.392Z,23
2023-05-14T07:35:38.391Z,23
2023-05-14T07:39:03.640Z,23
2023-05-14T07:42:35.693Z,23
2023-05-14T07:45:54.235Z,23
2023-05-14T07:49:19.382Z,23
2023-05-14T07:52:44.628Z,23
2023-05-14T07:56:09.825Z,23
2023-05-14T07:59:35.054Z,28
2023-05-14T08:03:00.504Z,28
2023-05-14T08:06:25.494Z,28
2023-05-14T08:09:50.758Z,28
2023-05-14T08:13:16.017Z,34
2023-05-14T08:16:41.304Z,34
2023-05-14T08:20:06.589Z,34
2023-05-14T08:23:31.726Z,28
2023-05-14T08:26:56.963Z,23
2023-05-14T08:30:22.379Z,23
2023-05-14T08:33:47.428Z,28
2023-05-14T08:37:12.692Z,28
2023-05-14T08:40:37.895Z,34
2023-05-14T08:44:03.145Z,28
2023-05-14T08:47:28.404Z,39
2023-05-14T08:50:53.644Z,34
2023-05-14T08:54:18.936Z,34
2023-05-14T08:57:44.133Z,39
2023-05-14T09:01:09.345Z,51
2023-05-14T09:04:34.657Z,62
2023-05-14T09:07:59.808Z,68
2023-05-14T09:11:25.072Z,56
2023-05-14T09:14:50.314Z,56
2023-05-14T09:18:15.535Z,56
2023-05-14T09:21:40.784Z,68
2023-05-14T09:25:05.995Z,45
2023-05-14T09:28:31.242Z,51
2023-05-14T09:31:56.462Z,45
2023-05-14T09:35:21.650Z,56
2023-05-14T09:38:46.874Z,45
2023-05-14T09:42:12.155Z,45
2023-05-14T09:45:37.498Z,45
2023-05-14T09:49:02.703Z,45
2023-05-14T09:52:27.917Z,124
2023-05-14T09:55:53.147Z,124
2023-05-14T09:59:18.358Z,62
2023-05-14T10:02:43.633Z,45
2023-05-14T10:06:08.825Z,34
2023-05-14T10:09:34.043Z,39
2023-05-14T10:12:59.270Z,23
2023-05-14T10:16:24.529Z,23
2023-05-14T10:19:49.776Z,34
2023-05-14T10:23:14.995Z,51
2023-05-14T10:26:40.240Z,34
2023-05-14T10:30:06.366Z,34
2023-05-14T10:33:31.566Z,45
2023-05-14T10:36:56.815Z,51
2023-05-14T10:40:22.237Z,51
2023-05-14T10:43:47.252Z,34
2023-05-14T10:47:12.506Z,28
2023-05-14T10:50:37.745Z,28
2023-05-14T10:54:02.994Z,39
2023-05-14T10:57:28.212Z,56
2023-05-14T11:00:53.433Z,84
2023-05-14T11:04:18.671Z,51
2023-05-14T11:07:43.909Z,51
2023-05-14T11:11:09.169Z,34
2023-05-14T11:14:34.392Z,23
2023-05-14T11:17:59.744Z,28
2023-05-14T11:21:24.921Z,34
2023-05-14T11:24:50.039Z,34
2023-05-14T11:28:15.266Z,118
2023-05-14T11:31:40.502Z,62
2023-05-14T11:35:05.707Z,56
2023-05-14T11:38:30.904Z,90
2023-05-14T11:41:56.131Z,84
2023-05-14T11:45:21.380Z,68
2023-05-14T11:48:46.608Z,45
2023-05-14T11:52:11.831Z,39
2023-05-14T11:55:37.082Z,39
2023-05-14T11:59:02.322Z,39
2023-05-14T12:02:27.618Z,45
2023-05-14T12:05:52.730Z,51
2023-05-14T12:09:17.945Z,45
2023-05-14T12:12:43.199Z,45
2023-05-14T12:16:08.464Z,45
2023-05-14T12:19:33.670Z,45
2023-05-14T12:22:58.883Z,45
2023-05-14T12:26:24.130Z,45
2023-05-14T12:29:49.354Z,45
2023-05-14T12:33:14.584Z,51
2023-05-14T12:36:39.811Z,51
2023-05-14T12:40:05.000Z,56
2023-05-14T12:43:30.247Z,51
2023-05-14T12:46:55.515Z,51
2023-05-14T12:50:20.735Z,73
2023-05-14T12:53:46.005Z,51
2023-05-14T12:57:11.196Z,51
2023-05-14T13:00:36.426Z,56
2023-05-14T13:04:01.652Z,51
2023-05-14T13:07:26.847Z,45
2023-05-14T13:10:52.079Z,51
2023-05-14T13:14:18.366Z,96
2023-05-14T13:17:42.570Z,51
2023-05-14T13:21:07.703Z,51
2023-05-14T13:24:32.928Z,62
2023-05-14T13:27:58.162Z,51
2023-05-14T13:31:23.384Z,51
2023-05-14T13:34:48.581Z,96
2023-05-14T13:38:13.833Z,96
2023-05-14T13:41:39.046Z,45
2023-05-14T13:45:04.393Z,51
2023-05-14T13:48:29.508Z,28
2023-05-14T13:51:54.776Z,23
2023-05-14T13:55:20.017Z,23
2023-05-14T13:58:45.217Z,28
2023-05-14T14:02:10.514Z,11
2023-05-14T14:05:35.847Z,11
2023-05-14T14:09:00.954Z,11
2023-05-14T14:12:26.261Z,11
2023-05-14T14:15:51.560Z,11
2023-05-14T14:19:18.357Z,17
2023-05-14T14:22:42.682Z,23
2023-05-14T14:26:07.990Z,28
2023-05-14T14:29:33.244Z,28
2023-05-14T14:32:58.504Z,28
2023-05-14T14:36:23.718Z,23
2023-05-14T14:39:48.925Z,23
2023-05-14T14:43:14.133Z,28
2023-05-14T14:46:39.391Z,34
2023-05-14T14:50:04.586Z,23
2023-05-14T14:53:29.912Z,28
2023-05-14T14:56:55.074Z,28
2023-05-14T15:00:20.296Z,28
2023-05-14T15:03:45.624Z,23
2023-05-14T15:07:10.722Z,17
2023-05-14T15:10:35.957Z,11
2023-05-14T15:48:03.917Z,0
2023-05-14T15:51:29.092Z,11
2023-05-14T15:54:54.371Z,11
2023-05-14T15:58:21.599Z,17
2023-05-14T16:01:46.895Z,17
2023-05-14T16:05:12.138Z,17
2023-05-14T16:08:37.352Z,17
2023-05-14T16:12:02.628Z,17
2023-05-14T16:15:27.862Z,17
2023-05-14T16:18:53.106Z,11
2023-05-14T16:22:18.376Z,11
2023-05-14T16:25:43.603Z,11
2023-05-14T16:29:08.800Z,6
2023-05-14T16:32:34.053Z,6
2023-05-14T16:35:59.274Z,6
2023-05-14T16:39:24.543Z,6
2023-05-14T16:42:49.744Z,6
2023-05-14T16:46:15.055Z,6
2023-05-14T16:49:40.230Z,11
2023-05-14T16:53:05.462Z,11
2023-05-14T16:56:30.723Z,11
2023-05-14T16:59:55.951Z,6
2023-05-14T17:03:21.199Z,6
2023-05-14T17:06:46.430Z,6
2023-05-14T17:10:11.668Z,6
2023-05-14T17:13:36.930Z,6
2023-05-14T17:17:02.161Z,6
2023-05-14T17:20:27.589Z,6
2023-05-14T17:23:52.586Z,6
2023-05-14T17:27:17.801Z,6
2023-05-14T17:30:43.092Z,6
2023-05-14T17:34:08.293Z,6
2023-05-14T17:37:33.540Z,0
2023-05-14T17:40:58.794Z,0
2023-05-14T17:44:24.015Z,0
2023-05-14T17:47:49.370Z,0
2023-05-14T17:51:14.501Z,0
2023-05-14T17:54:39.746Z,0
2023-05-14T17:58:04.962Z,0
2023-05-14T18:01:30.329Z,0
2023-05-14T18:04:55.476Z,0
2023-05-14T18:08:20.681Z,0
2023-05-14T18:11:45.927Z,0
2023-05-14T18:15:11.154Z,0
2023-05-14T18:18:36.407Z,0
2023-05-14T18:22:01.652Z,0
2023-05-14T18:25:26.881Z,0
2023-05-14T18:28:52.111Z,0
2023-05-14T18:32:17.349Z,0
2023-05-14T18:35:42.583Z,0
2023-05-14T18:39:07.838Z,0
2023-05-14T18:42:33.046Z,0
2023-05-14T18:45:58.358Z,0
2023-05-14T18:49:23.534Z,0
2023-05-14T18:52:49.047Z,0
2023-05-14T18:56:14.315Z,0
2023-05-14T18:59:39.514Z,0
2023-05-14T19:03:04.761Z,0
2023-05-14T19:06:29.973Z,0
2023-05-14T19:09:55.235Z,0
2023-05-14T19:13:20.480Z,0
2023-05-14T19:16:45.716Z,0
2023-05-14T19:20:10.941Z,0
2023-05-14T19:23:36.195Z,0
2023-05-14T19:27:01.841Z,0
2023-05-14T19:30:27.109Z,0
2023-05-14T19:33:52.329Z,0
2023-05-14T19:37:17.576Z,0
2023-05-14T19:40:43.676Z,0
2023-05-14T19:44:08.101Z,0
2023-05-14T19:47:33.413Z,0
2023-05-14T19:50:58.618Z,0
2023-05-14T19:54:23.805Z,0
2023-05-14T19:57:49.069Z,0
2023-05-14T20:01:14.345Z,0
2023-05-14T20:04:39.550Z,0
2023-05-14T20:08:04.725Z,0
2023-05-14T20:11:29.949Z,0
2023-05-14T20:14:55.160Z,0
2023-05-14T20:18:20.360Z,0
2023-05-14T20:21:45.617Z,0
2023-05-14T20:25:10.846Z,0
2023-05-14T20:28:36.083Z,0
2023-05-14T20:32:01.285Z,0
2023-05-14T20:35:26.810Z,0
2023-05-14T20:38:51.914Z,0
2023-05-14T20:42:17.153Z,0
2023-05-14T20:45:42.407Z,0
2023-05-14T20:49:07.709Z,0
2023-05-14T20:52:32.939Z,0
2023-05-14T20:55:58.189Z,0
2023-05-14T20:59:23.428Z,0
2023-05-14T21:02:48.812Z,0
2023-05-14T21:06:13.872Z,0
2023-05-14T21:09:39.073Z,0
2023-05-14T21:13:04.309Z,0
2023-05-14T21:16:29.545Z,0
2023-05-14T21:19:54.717Z,0
2023-05-14T21:23:19.935Z,0
2023-05-14T21:26:45.145Z,0
2023-05-14T21:30:10.400Z,0
2023-05-14T21:33:35.594Z,0
2023-05-14T21:37:00.832Z,0
2023-05-14T21:40:26.234Z,0
2023-05-14T21:43:51.468Z,0
2023-05-14T21:47:16.699Z,0
2023-05-14T21:50:41.902Z,0
2023-05-14T21:54:07.148Z,0
2023-05-14T21:57:34.449Z,0
2023-05-14T22:00:57.645Z,0
2023-05-14T22:04:22.862Z,0
2023-05-14T22:07:48.071Z,0
2023-05-14T22:11:13.333Z,0
2023-05-14T22:14:38.562Z,0
2023-05-14T22:18:03.787Z,0
2023-05-14T22:21:28.990Z,0
2023-05-14T22:24:54.205Z,0
2023-05-14T22:28:19.437Z,0
2023-05-14T22:31:44.735Z,0
2023-05-14T22:35:09.895Z,0
2023-05-14T22:38:35.252Z,0
2023-05-14T22:42:00.332Z,0
2023-05-14T22:45:25.711Z,0
2023-05-14T22:48:50.742Z,0
2023-05-14T22:52:15.941Z,0
2023-05-14T22:55:41.181Z,0
2023-05-14T22:59:06.429Z,0
2023-05-14T23:02:31.718Z,0
2023-05-14T23:05:56.851Z,0
2023-05-14T23:09:22.069Z,0
2023-05-14T23:12:47.339Z,0
2023-05-14T23:16:12.589Z,0
2023-05-14T23:19:37.848Z,0
2023-05-14T23:23:03.065Z,0
2023-05-14T23:26:28.269Z,0
2023-05-14T23:29:53.552Z,0
2023-05-14T23:33:18.716Z,0
2023-05-14T23:36:43.958Z,0
2023-05-14T23:40:09.186Z,0
2023-05-14T23:43:34.395Z,0
2023-05-14T23:46:59.640Z,0
2023-05-14T23:50:24.853Z,0
2023-05-14T23:53:50.080Z,0
2023-05-14T23:57:15.294Z,0
